Terminal Aerodrome Forecast
Issued by NWS

Home | Current Version | Previous Version | Text Only | Print | Product List | Glossary On
Versions: 1 2 3 4 5 6 7 8 9 10 11 12 13 14 15 16 17 18
000
FTUS41 KGYX 282320
TAFPSM
TAF
KPSM 282320Z 2900/2924 30006KT P6SM FEW050
     FM290200 31004KT P6SM SKC
     FM291400 VRB03KT P6SM SCT100 BKN250
     FM291800 VRB03KT P6SM BKN100 OVC250=

USA.gov is the U.S. government's official web portal to all federal, state and local government web resources and services.